createdAt,value
2019-05-19T00:00:43.723Z,0.00
2019-05-19T00:01:43.733Z,0.00
2019-05-19T00:02:43.701Z,0.00
2019-05-19T00:03:43.725Z,0.00
2019-05-19T00:04:43.689Z,0.00
2019-05-19T00:05:43.692Z,0.00
2019-05-19T00:06:43.678Z,0.00
2019-05-19T00:07:43.661Z,0.00
2019-05-19T00:08:43.650Z,0.00
2019-05-19T00:09:43.643Z,0.00
2019-05-19T00:10:43.641Z,0.00
2019-05-19T00:11:43.627Z,0.00
2019-05-19T00:12:43.714Z,0.00
2019-05-19T00:13:43.632Z,0.00
2019-05-19T00:14:43.632Z,0.00
2019-05-19T00:15:43.621Z,0.00
2019-05-19T00:16:43.605Z,0.00
2019-05-19T00:17:43.602Z,0.00
2019-05-19T00:18:43.596Z,0.00
2019-05-19T00:19:43.585Z,0.00
2019-05-19T00:20:43.575Z,0.00
2019-05-19T00:21:43.570Z,0.00
2019-05-19T00:22:43.561Z,0.00
2019-05-19T00:23:43.555Z,0.00
2019-05-19T00:24:43.584Z,0.00
2019-05-19T00:25:43.559Z,0.00
2019-05-19T00:26:43.658Z,0.00
2019-05-19T00:27:43.546Z,0.00
2019-05-19T00:28:43.553Z,0.00
2019-05-19T00:29:43.551Z,0.00
2019-05-19T00:30:43.563Z,0.00
2019-05-19T00:31:43.536Z,0.00
2019-05-19T00:32:43.541Z,0.00
2019-05-19T00:33:43.518Z,0.00
2019-05-19T00:34:43.508Z,0.00
2019-05-19T00:35:43.498Z,0.00
2019-05-19T00:36:43.491Z,0.00
2019-05-19T00:37:43.590Z,0.00
2019-05-19T00:38:43.475Z,0.00
2019-05-19T00:39:43.469Z,0.00
2019-05-19T00:40:43.460Z,0.00
2019-05-19T00:41:43.507Z,0.00
2019-05-19T00:42:43.710Z,0.00
2019-05-19T00:43:43.524Z,0.00
2019-05-19T00:44:43.440Z,0.00
2019-05-19T00:45:43.425Z,0.00
2019-05-19T00:46:43.433Z,0.00
2019-05-19T00:47:43.419Z,0.00
2019-05-19T00:48:43.548Z,0.00
2019-05-19T00:49:43.405Z,0.00
2019-05-19T00:50:43.401Z,0.00
2019-05-19T00:51:43.400Z,0.00
2019-05-19T00:52:43.397Z,0.00
2019-05-19T00:53:43.385Z,0.00
2019-05-19T00:54:43.371Z,0.00
2019-05-19T00:55:43.358Z,0.00
2019-05-19T00:56:43.354Z,0.00
2019-05-19T00:57:43.347Z,0.00
2019-05-19T00:58:43.365Z,0.00
2019-05-19T00:59:43.344Z,0.00
2019-05-19T01:00:43.441Z,0.00
2019-05-19T01:01:43.331Z,0.00
2019-05-19T01:02:43.308Z,0.00
2019-05-19T01:03:43.300Z,0.00
2019-05-19T01:04:43.307Z,0.00
2019-05-19T01:05:43.293Z,0.00
2019-05-19T01:06:43.278Z,0.00
2019-05-19T01:07:43.269Z,0.00
2019-05-19T01:08:43.263Z,0.00
2019-05-19T01:09:43.262Z,0.00
2019-05-19T01:10:43.273Z,0.00
2019-05-19T01:11:43.241Z,0.00
2019-05-19T01:12:43.231Z,0.00
2019-05-19T01:13:43.224Z,0.00
2019-05-19T01:14:43.217Z,0.00
2019-05-19T01:15:43.209Z,0.00
2019-05-19T01:16:43.233Z,0.00
2019-05-19T01:17:43.214Z,0.00
2019-05-19T01:18:43.209Z,0.00
2019-05-19T01:19:55.341Z,0.00
2019-05-19T01:20:44.191Z,0.00
2019-05-19T01:21:43.273Z,0.00
2019-05-19T01:22:43.186Z,0.00
2019-05-19T01:23:43.167Z,0.00
2019-05-19T01:24:43.159Z,0.00
2019-05-19T01:25:43.154Z,0.00
2019-05-19T01:26:43.179Z,0.00
2019-05-19T01:27:43.142Z,0.00
2019-05-19T01:28:43.147Z,0.00
2019-05-19T01:29:43.121Z,0.00
2019-05-19T01:30:43.112Z,0.00
2019-05-19T01:31:43.101Z,0.00
2019-05-19T01:32:43.189Z,0.00
2019-05-19T01:33:43.085Z,0.00
2019-05-19T01:34:43.081Z,0.00
2019-05-19T01:35:43.068Z,0.00
2019-05-19T01:36:43.065Z,0.00
2019-05-19T01:37:43.061Z,0.00
2019-05-19T01:38:43.051Z,0.00
2019-05-19T01:39:43.039Z,0.00
2019-05-19T01:40:43.039Z,0.00
2019-05-19T01:41:43.029Z,0.00
2019-05-19T01:42:43.012Z,0.00
2019-05-19T01:43:43.012Z,0.00
2019-05-19T01:44:42.996Z,0.00
2019-05-19T01:45:43.000Z,0.00
2019-05-19T01:46:43.012Z,0.00
2019-05-19T01:47:42.979Z,0.00
2019-05-19T01:48:43.013Z,0.00
2019-05-19T01:49:42.961Z,0.00
2019-05-19T01:50:42.961Z,0.00
2019-05-19T01:51:42.953Z,0.00
2019-05-19T01:52:42.947Z,0.00
2019-05-19T01:53:42.968Z,0.00
2019-05-19T01:54:43.037Z,0.00
2019-05-19T01:55:42.919Z,0.00
2019-05-19T01:56:42.913Z,0.00
2019-05-19T01:57:42.911Z,0.00
2019-05-19T01:58:42.898Z,0.00
2019-05-19T01:59:42.892Z,0.00
2019-05-19T02:00:42.923Z,0.00
2019-05-19T02:01:42.881Z,0.00
2019-05-19T02:02:42.872Z,0.00
2019-05-19T02:03:42.879Z,0.00
2019-05-19T02:04:42.865Z,0.00
2019-05-19T02:05:42.954Z,0.00
2019-05-19T02:06:42.858Z,0.00
2019-05-19T02:07:42.841Z,0.00
2019-05-19T02:08:42.840Z,0.00
2019-05-19T02:09:42.887Z,0.00
2019-05-19T02:10:42.816Z,0.00
2019-05-19T02:11:42.818Z,0.00
2019-05-19T02:12:42.824Z,0.00
2019-05-19T02:13:42.795Z,0.00
2019-05-19T02:14:42.785Z,0.00
2019-05-19T02:15:42.791Z,0.00
2019-05-19T02:16:42.798Z,0.00
2019-05-19T02:17:42.771Z,0.00
2019-05-19T02:18:42.770Z,0.00
2019-05-19T02:19:42.759Z,0.00
2019-05-19T02:20:42.749Z,0.00
2019-05-19T02:21:42.742Z,0.00
2019-05-19T02:22:42.737Z,0.00
2019-05-19T02:23:42.721Z,0.00
2019-05-19T02:24:42.744Z,0.00
2019-05-19T02:25:42.775Z,0.00
2019-05-19T02:26:42.707Z,0.00
2019-05-19T02:27:42.711Z,0.00
2019-05-19T02:28:42.701Z,0.00
2019-05-19T02:29:42.708Z,0.00
2019-05-19T02:30:42.696Z,0.00
2019-05-19T02:31:42.672Z,0.00
2019-05-19T02:32:42.664Z,0.00
2019-05-19T02:33:42.665Z,0.00
2019-05-19T02:34:42.651Z,0.00
2019-05-19T02:35:42.646Z,0.00
2019-05-19T02:36:42.643Z,0.00
2019-05-19T02:37:42.658Z,0.00
2019-05-19T02:38:42.662Z,0.00
2019-05-19T02:39:42.651Z,0.00
2019-05-19T02:40:42.626Z,0.00
2019-05-19T02:41:42.625Z,0.00
2019-05-19T02:42:42.605Z,0.00
2019-05-19T02:43:42.602Z,0.00
2019-05-19T02:44:42.600Z,0.00
2019-05-19T02:45:42.593Z,0.00
2019-05-19T02:46:42.588Z,0.00
2019-05-19T02:47:42.585Z,0.00
2019-05-19T02:48:42.568Z,0.00
2019-05-19T02:49:42.592Z,0.00
2019-05-19T02:50:52.113Z,0.00
2019-05-19T02:51:43.556Z,0.00
2019-05-19T02:52:42.565Z,0.00
2019-05-19T02:53:42.552Z,0.00
2019-05-19T02:54:42.558Z,0.00
2019-05-19T02:55:42.531Z,0.00
2019-05-19T02:56:42.519Z,0.00
2019-05-19T02:57:42.512Z,0.00
2019-05-19T02:58:42.503Z,0.00
2019-05-19T02:59:42.499Z,0.00
2019-05-19T03:00:42.615Z,0.00
2019-05-19T03:01:42.605Z,0.00
2019-05-19T03:02:42.497Z,0.00
2019-05-19T03:03:42.490Z,0.00
2019-05-19T03:04:42.482Z,0.00
2019-05-19T03:05:42.476Z,0.00
2019-05-19T03:06:42.484Z,0.00
2019-05-19T03:07:42.489Z,0.00
2019-05-19T03:08:42.457Z,0.00
2019-05-19T03:09:42.457Z,0.00
2019-05-19T03:10:42.441Z,0.00
2019-05-19T03:11:42.441Z,0.00
2019-05-19T03:12:42.425Z,0.00
2019-05-19T03:13:42.447Z,0.00
2019-05-19T03:14:42.401Z,0.00
2019-05-19T03:15:42.403Z,0.00
2019-05-19T03:16:42.391Z,0.00
2019-05-19T03:17:42.388Z,0.00
2019-05-19T03:18:42.389Z,0.00
2019-05-19T03:19:42.363Z,0.00
2019-05-19T03:20:42.357Z,0.00
2019-05-19T03:21:42.346Z,0.00
2019-05-19T03:22:42.365Z,0.00
2019-05-19T03:23:42.438Z,0.00
2019-05-19T03:24:42.347Z,0.00
2019-05-19T03:25:44.243Z,0.00
2019-05-19T03:26:42.329Z,0.00
2019-05-19T03:27:42.407Z,0.00
2019-05-19T03:28:42.334Z,0.00
2019-05-19T03:29:42.303Z,0.00
2019-05-19T03:30:42.302Z,0.00
2019-05-19T03:31:42.323Z,0.00
2019-05-19T03:32:42.305Z,0.00
2019-05-19T03:33:42.312Z,0.00
2019-05-19T03:34:42.301Z,0.00
2019-05-19T03:35:42.279Z,0.00
2019-05-19T03:36:42.273Z,0.00
2019-05-19T03:37:42.278Z,0.00
2019-05-19T03:38:42.344Z,0.00
2019-05-19T03:39:42.253Z,0.00
2019-05-19T03:40:42.243Z,0.00
2019-05-19T03:41:42.245Z,0.00
2019-05-19T03:42:42.242Z,0.00
2019-05-19T03:43:42.228Z,0.00
2019-05-19T03:44:42.258Z,0.00
2019-05-19T03:45:42.235Z,0.00
2019-05-19T03:46:42.222Z,0.00
2019-05-19T03:47:42.216Z,0.00
2019-05-19T03:48:42.209Z,0.00
2019-05-19T03:49:42.202Z,0.00
2019-05-19T03:50:42.196Z,0.00
2019-05-19T03:51:42.177Z,0.00
2019-05-19T03:52:42.203Z,0.00
2019-05-19T03:53:42.160Z,0.00
2019-05-19T03:54:42.197Z,0.00
2019-05-19T03:55:42.173Z,0.00
2019-05-19T03:56:42.160Z,0.00
2019-05-19T03:57:42.175Z,0.00
2019-05-19T03:58:42.151Z,0.00
2019-05-19T03:59:42.137Z,0.00
2019-05-19T04:00:42.214Z,0.00
2019-05-19T04:01:42.131Z,0.00
2019-05-19T04:02:42.140Z,0.00
2019-05-19T04:03:42.114Z,0.00
2019-05-19T04:04:42.101Z,0.00
2019-05-19T04:05:42.089Z,0.00
2019-05-19T04:06:42.096Z,0.00
2019-05-19T04:07:42.078Z,0.00
2019-05-19T04:08:42.079Z,0.00
2019-05-19T04:09:42.063Z,0.00
2019-05-19T04:10:42.056Z,0.00
2019-05-19T04:11:42.055Z,0.00
2019-05-19T04:12:42.039Z,0.00
2019-05-19T04:13:42.044Z,0.00
2019-05-19T04:14:42.033Z,0.00
2019-05-19T04:15:42.071Z,0.00
2019-05-19T04:16:42.041Z,0.00
2019-05-19T04:17:42.018Z,0.00
2019-05-19T04:18:42.001Z,0.00
2019-05-19T04:19:42.000Z,0.00
2019-05-19T04:20:41.999Z,0.00
2019-05-19T04:21:48.749Z,0.00
2019-05-19T04:22:43.010Z,0.00
2019-05-19T04:23:41.959Z,0.00
2019-05-19T04:24:41.955Z,0.00
2019-05-19T04:25:41.944Z,0.00
2019-05-19T04:26:41.957Z,0.00
2019-05-19T04:27:41.933Z,0.00
2019-05-19T04:28:41.953Z,0.00
2019-05-19T04:29:41.919Z,0.00
2019-05-19T04:30:41.905Z,0.00
2019-05-19T04:31:41.909Z,0.00
2019-05-19T04:32:41.915Z,0.00
2019-05-19T04:33:41.911Z,0.00
2019-05-19T04:34:41.907Z,0.00
2019-05-19T04:35:41.916Z,0.00
2019-05-19T04:36:41.877Z,0.00
2019-05-19T04:37:41.867Z,0.00
2019-05-19T04:38:41.859Z,0.00
2019-05-19T04:39:41.874Z,0.00
2019-05-19T04:40:41.865Z,0.00
2019-05-19T04:41:41.906Z,0.00
2019-05-19T04:42:41.846Z,0.00
2019-05-19T04:43:41.838Z,0.00
2019-05-19T04:44:41.837Z,0.00
2019-05-19T04:45:41.829Z,0.00
2019-05-19T04:46:41.821Z,0.00
2019-05-19T04:47:41.836Z,0.00
2019-05-19T04:48:41.796Z,0.00
2019-05-19T04:49:41.805Z,0.00
2019-05-19T04:50:41.787Z,0.00
2019-05-19T04:51:41.780Z,0.00
2019-05-19T04:52:41.770Z,0.00
2019-05-19T04:53:41.783Z,0.00
2019-05-19T04:54:41.758Z,0.00
2019-05-19T04:55:41.775Z,0.00
2019-05-19T04:56:41.748Z,0.00
2019-05-19T04:57:41.753Z,0.00
2019-05-19T04:58:41.742Z,0.00
2019-05-19T04:59:41.730Z,0.00
2019-05-19T05:00:41.727Z,0.00
2019-05-19T05:01:41.724Z,0.00
2019-05-19T05:02:41.728Z,0.00
2019-05-19T05:03:41.701Z,0.00
2019-05-19T05:04:41.696Z,0.00
2019-05-19T05:05:41.712Z,0.00
2019-05-19T05:06:41.721Z,0.00
2019-05-19T05:07:41.698Z,0.00
2019-05-19T05:08:41.706Z,0.00
2019-05-19T05:09:41.676Z,0.00
2019-05-19T05:10:41.672Z,0.00
2019-05-19T05:11:41.657Z,0.00
2019-05-19T05:12:41.665Z,0.00
2019-05-19T05:13:41.673Z,0.00
2019-05-19T05:14:41.639Z,0.00
2019-05-19T05:15:41.629Z,0.00
2019-05-19T05:16:41.647Z,0.00
2019-05-19T05:17:41.985Z,0.00
2019-05-19T05:18:41.608Z,0.00
2019-05-19T05:19:41.601Z,0.00
2019-05-19T05:20:41.608Z,0.00
2019-05-19T05:21:41.593Z,0.00
2019-05-19T05:22:41.579Z,0.00
2019-05-19T05:23:41.577Z,0.00
2019-05-19T05:24:41.576Z,0.00
2019-05-19T05:25:41.553Z,0.00
2019-05-19T05:26:41.542Z,0.00
2019-05-19T05:27:41.536Z,0.00
2019-05-19T05:28:41.539Z,0.00
2019-05-19T05:29:41.517Z,0.00
2019-05-19T05:30:41.507Z,0.00
2019-05-19T05:31:41.517Z,0.00
2019-05-19T05:32:41.497Z,0.00
2019-05-19T05:33:41.486Z,0.00
2019-05-19T05:34:41.486Z,0.00
2019-05-19T05:35:41.470Z,0.00
2019-05-19T05:36:41.467Z,0.00
2019-05-19T05:37:41.454Z,0.00
2019-05-19T05:38:41.466Z,0.00
2019-05-19T05:39:41.465Z,0.00
2019-05-19T05:40:41.431Z,0.00
2019-05-19T05:41:41.450Z,0.00
2019-05-19T05:42:41.443Z,0.00
2019-05-19T05:43:41.437Z,0.00
2019-05-19T05:44:41.425Z,0.00
2019-05-19T05:45:41.419Z,0.00
2019-05-19T05:46:41.405Z,0.00
2019-05-19T05:47:41.416Z,0.00
2019-05-19T05:48:41.385Z,0.00
2019-05-19T05:49:41.381Z,0.00
2019-05-19T05:50:41.471Z,0.00
2019-05-19T05:51:41.361Z,0.00
2019-05-19T05:52:41.356Z,0.00
2019-05-19T05:53:41.348Z,0.00
2019-05-19T05:54:41.385Z,0.00
2019-05-19T05:55:41.334Z,0.00
2019-05-19T05:56:41.332Z,0.00
2019-05-19T05:57:41.319Z,0.00
2019-05-19T05:58:41.323Z,0.00
2019-05-19T05:59:41.300Z,0.00
2019-05-19T06:00:41.292Z,0.00
2019-05-19T06:01:41.354Z,0.00
2019-05-19T06:02:41.328Z,0.00
2019-05-19T06:03:41.265Z,0.00
2019-05-19T06:04:41.256Z,0.00
2019-05-19T06:05:41.277Z,0.00
2019-05-19T06:06:41.263Z,0.00
2019-05-19T06:07:41.262Z,0.00
2019-05-19T06:08:41.246Z,0.00
2019-05-19T06:09:41.246Z,0.00
2019-05-19T06:10:41.247Z,0.00
2019-05-19T06:11:41.261Z,0.00
2019-05-19T06:12:41.230Z,0.00
2019-05-19T06:13:41.222Z,0.00
2019-05-19T06:14:41.209Z,0.00
2019-05-19T06:15:41.202Z,0.00
2019-05-19T06:16:41.191Z,0.00
2019-05-19T06:17:41.187Z,0.00
2019-05-19T06:18:41.201Z,0.00
2019-05-19T06:19:41.172Z,0.00
2019-05-19T06:20:41.163Z,0.00
2019-05-19T06:21:41.148Z,0.00
2019-05-19T06:22:55.171Z,5.62
2019-05-19T06:23:42.231Z,5.62
2019-05-19T06:24:41.141Z,5.62
2019-05-19T06:25:41.163Z,5.62
2019-05-19T06:26:41.122Z,5.62
2019-05-19T06:27:41.118Z,5.62
2019-05-19T06:28:41.107Z,5.62
2019-05-19T06:29:41.126Z,5.62
2019-05-19T06:30:41.113Z,5.62
2019-05-19T06:31:41.125Z,5.62
2019-05-19T06:32:41.100Z,5.62
2019-05-19T06:33:41.092Z,5.62
2019-05-19T06:34:41.102Z,5.62
2019-05-19T06:35:41.086Z,5.62
2019-05-19T06:36:41.096Z,5.62
2019-05-19T06:37:41.097Z,5.62
2019-05-19T06:38:41.085Z,5.62
2019-05-19T06:39:41.069Z,5.62
2019-05-19T06:40:41.069Z,5.62
2019-05-19T06:41:41.054Z,5.62
2019-05-19T06:42:41.051Z,5.62
2019-05-19T06:43:41.060Z,11.25
2019-05-19T06:44:41.039Z,11.25
2019-05-19T06:45:41.162Z,11.25
2019-05-19T06:46:41.020Z,11.25
2019-05-19T06:47:41.019Z,11.25
2019-05-19T06:48:41.010Z,16.88
2019-05-19T06:49:41.061Z,16.88
2019-05-19T06:50:41.145Z,16.88
2019-05-19T06:51:40.985Z,22.50
2019-05-19T06:52:40.976Z,22.50
2019-05-19T06:53:40.962Z,28.12
2019-05-19T06:54:40.959Z,39.38
2019-05-19T06:55:40.967Z,39.38
2019-05-19T06:56:40.976Z,45.00
2019-05-19T06:57:40.968Z,45.00
2019-05-19T06:58:40.957Z,45.00
2019-05-19T06:59:40.944Z,45.00
2019-05-19T07:00:40.937Z,56.25
2019-05-19T07:01:40.926Z,56.25
2019-05-19T07:02:40.937Z,56.25
2019-05-19T07:03:40.917Z,50.62
2019-05-19T07:04:40.921Z,56.25
2019-05-19T07:05:40.916Z,50.62
2019-05-19T07:06:40.933Z,56.25
2019-05-19T07:07:40.915Z,56.25
2019-05-19T07:08:40.920Z,56.25
2019-05-19T07:09:40.891Z,56.25
2019-05-19T07:10:40.882Z,56.25
2019-05-19T07:11:40.880Z,56.25
2019-05-19T07:12:40.868Z,56.25
2019-05-19T07:13:40.864Z,56.25
2019-05-19T07:14:40.853Z,50.62
2019-05-19T07:15:40.882Z,56.25
2019-05-19T07:16:40.838Z,56.25
2019-05-19T07:17:40.827Z,56.25
2019-05-19T07:18:40.912Z,56.25
2019-05-19T07:19:40.816Z,56.25
2019-05-19T07:20:40.811Z,61.88
2019-05-19T07:21:40.821Z,61.88
2019-05-19T07:22:40.797Z,61.88
2019-05-19T07:23:40.785Z,61.88
2019-05-19T07:24:40.778Z,61.88
2019-05-19T07:25:40.765Z,61.88
2019-05-19T07:26:40.762Z,61.88
2019-05-19T07:27:40.775Z,61.88
2019-05-19T07:28:40.764Z,56.25
2019-05-19T07:29:40.856Z,45.00
2019-05-19T07:30:40.746Z,39.38
2019-05-19T07:31:40.750Z,45.00
2019-05-19T07:32:40.739Z,50.62
2019-05-19T07:33:40.727Z,45.00
2019-05-19T07:34:40.721Z,50.62
2019-05-19T07:35:40.716Z,45.00
2019-05-19T07:36:40.704Z,56.25
2019-05-19T07:37:40.693Z,56.25
2019-05-19T07:38:40.710Z,61.88
2019-05-19T07:39:40.683Z,61.88
2019-05-19T07:40:40.681Z,61.88
2019-05-19T07:41:40.666Z,61.88
2019-05-19T07:42:40.654Z,61.88
2019-05-19T07:43:40.652Z,61.88
2019-05-19T07:44:40.655Z,61.88
2019-05-19T07:45:40.652Z,61.88
2019-05-19T07:46:40.652Z,61.88
2019-05-19T07:47:40.643Z,61.88
2019-05-19T07:48:40.634Z,50.62
2019-05-19T07:49:40.653Z,61.88
2019-05-19T07:50:40.626Z,61.88
2019-05-19T07:51:40.627Z,61.88
2019-05-19T07:52:40.621Z,61.88
2019-05-19T07:53:43.021Z,61.88
2019-05-19T07:54:40.579Z,61.88
2019-05-19T07:55:40.573Z,50.62
2019-05-19T07:56:40.652Z,45.00
2019-05-19T07:57:40.634Z,50.62
2019-05-19T07:58:40.557Z,45.00
2019-05-19T07:59:40.542Z,28.12
2019-05-19T08:00:40.533Z,33.75
2019-05-19T08:01:40.527Z,33.75
2019-05-19T08:02:40.522Z,45.00
2019-05-19T08:03:40.513Z,33.75
2019-05-19T08:04:40.515Z,33.75
2019-05-19T08:05:40.501Z,33.75
2019-05-19T08:06:40.498Z,39.38
2019-05-19T08:07:40.521Z,56.25
2019-05-19T08:08:40.485Z,50.62
2019-05-19T08:09:40.492Z,50.62
2019-05-19T08:10:40.492Z,45.00
2019-05-19T08:11:40.478Z,56.25
2019-05-19T08:12:40.464Z,39.38
2019-05-19T08:13:40.465Z,39.38
2019-05-19T08:14:40.446Z,33.75
2019-05-19T08:15:40.439Z,33.75
2019-05-19T08:16:40.442Z,28.12
2019-05-19T08:17:40.445Z,33.75
2019-05-19T08:18:40.434Z,33.75
2019-05-19T08:19:40.415Z,33.75
2019-05-19T08:20:40.414Z,28.12
2019-05-19T08:21:40.404Z,28.12
2019-05-19T08:22:40.399Z,28.12
2019-05-19T08:23:40.409Z,33.75
2019-05-19T08:24:40.395Z,33.75
2019-05-19T08:25:40.467Z,33.75
2019-05-19T08:26:40.373Z,28.12
2019-05-19T08:27:40.359Z,39.38
2019-05-19T08:28:40.355Z,33.75
2019-05-19T08:29:40.404Z,33.75
2019-05-19T08:30:40.610Z,28.12
2019-05-19T08:31:40.353Z,28.12
2019-05-19T08:32:40.347Z,28.12
2019-05-19T08:33:40.341Z,28.12
2019-05-19T08:34:40.329Z,28.12
2019-05-19T08:35:40.343Z,28.12
2019-05-19T08:36:40.314Z,16.88
2019-05-19T08:37:40.324Z,22.50
2019-05-19T08:38:40.317Z,22.50
2019-05-19T08:39:40.307Z,22.50
2019-05-19T08:40:40.312Z,22.50
2019-05-19T08:41:40.309Z,22.50
2019-05-19T08:42:40.294Z,16.88
2019-05-19T08:43:40.284Z,16.88
2019-05-19T08:44:40.276Z,22.50
2019-05-19T08:45:40.275Z,22.50
2019-05-19T08:46:40.261Z,22.50
2019-05-19T08:47:40.272Z,22.50
2019-05-19T08:48:40.249Z,22.50
2019-05-19T08:49:40.252Z,16.88
2019-05-19T08:50:40.228Z,22.50
2019-05-19T08:51:40.237Z,22.50
2019-05-19T08:52:40.263Z,22.50
2019-05-19T08:53:40.205Z,22.50
2019-05-19T08:54:40.208Z,22.50
2019-05-19T08:55:40.210Z,22.50
2019-05-19T08:56:40.303Z,22.50
2019-05-19T08:57:40.192Z,22.50
2019-05-19T08:58:40.184Z,22.50
2019-05-19T08:59:40.171Z,22.50
2019-05-19T09:00:40.172Z,22.50
2019-05-19T09:01:40.169Z,22.50
2019-05-19T09:02:40.195Z,22.50
2019-05-19T09:03:40.147Z,22.50
2019-05-19T09:04:40.144Z,22.50
2019-05-19T09:05:40.131Z,22.50
2019-05-19T09:06:40.120Z,22.50
2019-05-19T09:07:40.120Z,22.50
2019-05-19T09:08:40.120Z,22.50
2019-05-19T09:09:40.095Z,22.50
2019-05-19T09:10:40.087Z,22.50
2019-05-19T09:11:40.124Z,28.12
2019-05-19T09:12:40.072Z,28.12
2019-05-19T09:13:40.087Z,28.12
2019-05-19T09:14:40.094Z,28.12
2019-05-19T09:15:40.086Z,28.12
2019-05-19T09:16:40.071Z,28.12
2019-05-19T09:17:40.063Z,28.12
2019-05-19T09:18:40.142Z,28.12
2019-05-19T09:19:40.056Z,28.12
2019-05-19T09:20:40.076Z,28.12
2019-05-19T09:21:40.040Z,28.12
2019-05-19T09:22:40.027Z,28.12
2019-05-19T09:23:40.062Z,28.12
2019-05-19T09:24:40.038Z,28.12
2019-05-19T09:25:40.034Z,28.12
2019-05-19T09:26:40.019Z,28.12
2019-05-19T09:27:40.038Z,22.50
2019-05-19T09:28:40.084Z,22.50
2019-05-19T09:29:40.017Z,22.50
2019-05-19T09:30:40.026Z,22.50
2019-05-19T09:31:41.402Z,22.50
2019-05-19T09:32:39.989Z,22.50
2019-05-19T09:33:39.980Z,28.12
2019-05-19T09:34:39.994Z,28.12
2019-05-19T09:35:39.973Z,28.12
2019-05-19T09:36:39.954Z,28.12
2019-05-19T09:37:39.950Z,28.12
2019-05-19T09:38:39.939Z,22.50
2019-05-19T09:39:39.944Z,28.12
2019-05-19T09:40:39.949Z,28.12
2019-05-19T09:41:39.937Z,28.12
2019-05-19T09:42:39.988Z,28.12
2019-05-19T09:43:39.922Z,28.12
2019-05-19T09:44:39.928Z,28.12
2019-05-19T09:45:39.960Z,22.50
2019-05-19T09:46:39.930Z,22.50
2019-05-19T09:47:39.921Z,22.50
2019-05-19T09:48:39.914Z,22.50
2019-05-19T09:49:40.203Z,22.50
2019-05-19T09:50:39.909Z,28.12
2019-05-19T09:51:39.893Z,28.12
2019-05-19T09:52:39.886Z,28.12
2019-05-19T09:53:39.878Z,28.12
2019-05-19T09:54:45.280Z,28.12
2019-05-19T09:55:40.886Z,28.12
2019-05-19T09:56:39.952Z,28.12
2019-05-19T09:57:39.858Z,22.50
2019-05-19T09:58:39.849Z,22.50
2019-05-19T09:59:39.846Z,22.50
2019-05-19T10:00:39.840Z,22.50
2019-05-19T10:01:39.846Z,22.50
2019-05-19T10:02:39.830Z,28.12
2019-05-19T10:03:39.809Z,28.12
2019-05-19T10:04:39.820Z,28.12
2019-05-19T10:05:39.807Z,28.12
2019-05-19T10:06:39.800Z,28.12
2019-05-19T10:07:39.920Z,28.12
2019-05-19T10:08:39.800Z,22.50
2019-05-19T10:09:39.795Z,28.12
2019-05-19T10:10:39.784Z,22.50
2019-05-19T10:11:39.774Z,28.12
2019-05-19T10:12:39.767Z,28.12
2019-05-19T10:13:39.795Z,28.12
2019-05-19T10:14:39.763Z,28.12
2019-05-19T10:15:39.751Z,28.12
2019-05-19T10:16:39.769Z,28.12
2019-05-19T10:17:39.760Z,28.12
2019-05-19T10:18:39.788Z,28.12
2019-05-19T10:19:39.747Z,28.12
2019-05-19T10:20:39.739Z,28.12
2019-05-19T10:21:39.729Z,28.12
2019-05-19T10:22:39.718Z,28.12
2019-05-19T10:23:39.839Z,28.12
2019-05-19T10:24:39.716Z,28.12
2019-05-19T10:25:39.693Z,22.50
2019-05-19T10:26:39.687Z,22.50
2019-05-19T10:27:39.749Z,22.50
2019-05-19T10:28:39.670Z,22.50
2019-05-19T10:29:39.694Z,16.88
2019-05-19T10:30:39.678Z,16.88
2019-05-19T10:31:39.720Z,16.88
2019-05-19T10:32:39.666Z,22.50
2019-05-19T10:33:39.656Z,22.50
2019-05-19T10:34:39.659Z,22.50
2019-05-19T10:35:39.639Z,22.50
2019-05-19T10:36:39.630Z,16.88
2019-05-19T10:37:39.641Z,16.88
2019-05-19T10:38:39.651Z,16.88
2019-05-19T10:39:39.634Z,22.50
2019-05-19T10:40:39.606Z,22.50
2019-05-19T10:41:39.591Z,22.50
2019-05-19T10:42:39.588Z,22.50
2019-05-19T10:43:39.592Z,22.50
2019-05-19T10:44:39.573Z,22.50
2019-05-19T10:45:39.665Z,22.50
2019-05-19T10:46:39.578Z,22.50
2019-05-19T10:47:39.563Z,22.50
2019-05-19T10:48:39.565Z,22.50
2019-05-19T10:49:42.765Z,22.50
2019-05-19T10:50:39.612Z,22.50
2019-05-19T10:51:39.534Z,22.50
2019-05-19T10:52:39.523Z,22.50
2019-05-19T10:53:39.516Z,22.50
2019-05-19T10:54:39.503Z,22.50
2019-05-19T10:55:39.505Z,22.50
2019-05-19T10:56:39.543Z,16.88
2019-05-19T10:57:39.483Z,16.88
2019-05-19T10:58:39.472Z,16.88
2019-05-19T10:59:39.466Z,16.88
2019-05-19T11:00:39.460Z,16.88
2019-05-19T11:01:39.450Z,16.88
2019-05-19T11:02:39.446Z,22.50
2019-05-19T11:03:39.434Z,22.50
2019-05-19T11:04:39.444Z,22.50
2019-05-19T11:05:39.420Z,22.50
2019-05-19T11:06:39.414Z,22.50
2019-05-19T11:07:39.419Z,22.50
2019-05-19T11:08:39.392Z,22.50
2019-05-19T11:09:39.393Z,22.50
2019-05-19T11:10:39.407Z,22.50
2019-05-19T11:11:39.381Z,22.50
2019-05-19T11:12:39.372Z,22.50
2019-05-19T11:13:39.391Z,22.50
2019-05-19T11:14:39.386Z,22.50
2019-05-19T11:15:39.373Z,22.50
2019-05-19T11:16:39.619Z,16.88
2019-05-19T11:17:39.356Z,16.88
2019-05-19T11:18:39.432Z,16.88
2019-05-19T11:19:39.341Z,16.88
2019-05-19T11:20:39.336Z,16.88
2019-05-19T11:21:39.325Z,16.88
2019-05-19T11:22:39.342Z,16.88
2019-05-19T11:23:39.309Z,16.88
2019-05-19T11:24:39.303Z,16.88
2019-05-19T11:25:50.988Z,16.88
2019-05-19T11:26:40.288Z,16.88
2019-05-19T11:27:39.275Z,16.88
2019-05-19T11:28:39.291Z,16.88
2019-05-19T11:29:39.276Z,16.88
2019-05-19T11:30:39.253Z,16.88
2019-05-19T11:31:39.252Z,16.88
2019-05-19T11:32:39.232Z,16.88
2019-05-19T11:33:39.232Z,16.88
2019-05-19T11:34:39.237Z,16.88
2019-05-19T11:35:39.217Z,16.88
2019-05-19T11:36:39.209Z,16.88
2019-05-19T11:37:39.198Z,16.88
2019-05-19T11:38:39.191Z,16.88
2019-05-19T11:39:39.182Z,16.88
2019-05-19T11:40:39.265Z,16.88
2019-05-19T11:41:39.194Z,16.88
2019-05-19T11:42:39.165Z,22.50
2019-05-19T11:43:39.154Z,22.50
2019-05-19T11:44:39.145Z,22.50
2019-05-19T11:45:39.151Z,22.50
2019-05-19T11:46:39.141Z,22.50
2019-05-19T11:47:39.142Z,22.50
2019-05-19T11:48:39.177Z,22.50
2019-05-19T11:49:39.112Z,22.50
2019-05-19T11:50:42.018Z,16.88
2019-05-19T11:51:39.106Z,16.88
2019-05-19T11:52:39.089Z,16.88
2019-05-19T11:53:39.081Z,16.88
2019-05-19T11:54:39.094Z,16.88
2019-05-19T11:55:39.066Z,16.88
2019-05-19T11:56:39.059Z,16.88
2019-05-19T11:57:39.071Z,16.88
2019-05-19T11:58:39.050Z,16.88
2019-05-19T11:59:39.054Z,16.88
2019-05-19T12:00:39.049Z,16.88
2019-05-19T12:01:39.031Z,16.88
2019-05-19T12:02:39.028Z,16.88
2019-05-19T12:03:39.034Z,16.88
2019-05-19T12:04:39.044Z,16.88
2019-05-19T12:05:39.055Z,16.88
2019-05-19T12:06:40.137Z,16.88
2019-05-19T12:07:39.143Z,16.88
2019-05-19T12:08:39.065Z,16.88
2019-05-19T12:09:39.067Z,16.88
2019-05-19T12:10:39.064Z,16.88
2019-05-19T12:11:39.048Z,16.88
2019-05-19T12:12:39.046Z,16.88
2019-05-19T12:13:39.077Z,16.88
2019-05-19T12:14:39.051Z,16.88
2019-05-19T12:15:39.043Z,16.88
2019-05-19T12:16:39.038Z,16.88
2019-05-19T12:17:39.025Z,16.88
2019-05-19T12:18:39.032Z,16.88
2019-05-19T12:19:39.051Z,16.88
2019-05-19T12:20:39.005Z,16.88
2019-05-19T12:21:39.005Z,16.88
2019-05-19T12:22:38.992Z,16.88
2019-05-19T12:23:38.980Z,16.88
2019-05-19T12:24:38.979Z,16.88
2019-05-19T12:25:38.981Z,16.88
2019-05-19T12:26:38.967Z,16.88
2019-05-19T12:27:38.950Z,16.88
2019-05-19T12:28:38.948Z,16.88
2019-05-19T12:29:38.939Z,16.88
2019-05-19T12:30:38.929Z,16.88
2019-05-19T12:31:38.921Z,16.88
2019-05-19T12:32:38.930Z,16.88
2019-05-19T12:33:51.093Z,16.88
2019-05-19T12:34:39.902Z,16.88
2019-05-19T12:35:38.895Z,16.88
2019-05-19T12:36:38.879Z,16.88
2019-05-19T12:37:38.874Z,16.88
2019-05-19T12:38:38.893Z,16.88
2019-05-19T12:39:38.861Z,16.88
2019-05-19T12:40:38.856Z,16.88
2019-05-19T12:41:38.843Z,11.25
2019-05-19T12:42:38.834Z,11.25
2019-05-19T12:43:38.832Z,11.25
2019-05-19T12:44:38.863Z,11.25
2019-05-19T12:45:38.815Z,11.25
2019-05-19T12:46:38.810Z,11.25
2019-05-19T12:47:38.795Z,11.25
2019-05-19T12:48:38.812Z,11.25
2019-05-19T12:49:38.811Z,16.88
2019-05-19T12:50:38.818Z,16.88
2019-05-19T12:51:38.807Z,16.88
2019-05-19T12:52:38.789Z,16.88
2019-05-19T12:53:38.782Z,16.88
2019-05-19T12:54:38.792Z,16.88
2019-05-19T12:55:38.783Z,16.88
2019-05-19T12:56:40.186Z,16.88
2019-05-19T12:57:38.755Z,11.25
2019-05-19T12:58:38.776Z,11.25
2019-05-19T12:59:38.752Z,16.88
2019-05-19T13:00:38.742Z,11.25
2019-05-19T13:01:38.773Z,16.88
2019-05-19T13:02:38.742Z,11.25
2019-05-19T13:03:38.725Z,16.88
2019-05-19T13:04:38.840Z,16.88
2019-05-19T13:05:38.708Z,16.88